sensor_id;sensor_type;location;lat;lon;timestamp;P1;durP1;ratioP1;P2;durP2;ratioP2
27428;SDS011;14881;48.092;11.574;2023-08-21T00:00:37;13.90;;;12.35;;
27428;SDS011;14881;48.092;11.574;2023-08-21T00:03:04;12.65;;;11.35;;
27428;SDS011;14881;48.092;11.574;2023-08-21T00:05:31;22.02;;;12.77;;
27428;SDS011;14881;48.092;11.574;2023-08-21T00:07:57;13.20;;;11.75;;
27428;SDS011;14881;48.092;11.574;2023-08-21T00:10:24;13.60;;;11.60;;
27428;SDS011;14881;48.092;11.574;2023-08-21T00:12:50;12.57;;;10.43;;
27428;SDS011;14881;48.092;11.574;2023-08-21T00:15:17;12.75;;;11.23;;
27428;SDS011;14881;48.092;11.574;2023-08-21T00:17:44;12.80;;;11.38;;
27428;SDS011;14881;48.092;11.574;2023-08-21T00:20:11;12.98;;;11.23;;
27428;SDS011;14881;48.092;11.574;2023-08-21T00:22:37;12.32;;;11.02;;
27428;SDS011;14881;48.092;11.574;2023-08-21T00:25:04;13.15;;;11.70;;
27428;SDS011;14881;48.092;11.574;2023-08-21T00:27:31;12.43;;;11.13;;
27428;SDS011;14881;48.092;11.574;2023-08-21T00:29:57;22.52;;;12.35;;
27428;SDS011;14881;48.092;11.574;2023-08-21T00:32:26;17.95;;;11.43;;
27428;SDS011;14881;48.092;11.574;2023-08-21T00:34:53;11.98;;;10.63;;
27428;SDS011;14881;48.092;11.574;2023-08-21T00:37:19;18.42;;;11.35;;
27428;SDS011;14881;48.092;11.574;2023-08-21T00:39:46;14.88;;;11.10;;
27428;SDS011;14881;48.092;11.574;2023-08-21T00:42:12;12.20;;;10.60;;
27428;SDS011;14881;48.092;11.574;2023-08-21T00:44:38;13.63;;;11.48;;
27428;SDS011;14881;48.092;11.574;2023-08-21T00:47:05;12.45;;;10.98;;
27428;SDS011;14881;48.092;11.574;2023-08-21T00:49:32;13.98;;;11.77;;
27428;SDS011;14881;48.092;11.574;2023-08-21T00:51:59;14.75;;;11.52;;
27428;SDS011;14881;48.092;11.574;2023-08-21T00:54:27;13.88;;;12.23;;
27428;SDS011;14881;48.092;11.574;2023-08-21T00:56:53;11.73;;;10.63;;
27428;SDS011;14881;48.092;11.574;2023-08-21T00:59:20;15.98;;;11.90;;
27428;SDS011;14881;48.092;11.574;2023-08-21T01:01:48;13.10;;;11.45;;
27428;SDS011;14881;48.092;11.574;2023-08-21T01:04:14;13.90;;;11.60;;
27428;SDS011;14881;48.092;11.574;2023-08-21T01:06:41;15.55;;;11.65;;
27428;SDS011;14881;48.092;11.574;2023-08-21T01:09:08;12.23;;;10.32;;
27428;SDS011;14881;48.092;11.574;2023-08-21T01:11:42;14.20;;;11.93;;
27428;SDS011;14881;48.092;11.574;2023-08-21T01:14:14;11.55;;;10.45;;
27428;SDS011;14881;48.092;11.574;2023-08-21T01:16:47;13.77;;;11.07;;
27428;SDS011;14881;48.092;11.574;2023-08-21T01:19:22;15.38;;;11.93;;
27428;SDS011;14881;48.092;11.574;2023-08-21T01:21:57;15.85;;;11.25;;
27428;SDS011;14881;48.092;11.574;2023-08-21T01:24:24;16.98;;;12.50;;
27428;SDS011;14881;48.092;11.574;2023-08-21T01:26:51;12.48;;;11.18;;
27428;SDS011;14881;48.092;11.574;2023-08-21T01:29:17;13.15;;;11.30;;
27428;SDS011;14881;48.092;11.574;2023-08-21T01:31:44;14.13;;;11.50;;
27428;SDS011;14881;48.092;11.574;2023-08-21T01:34:16;14.55;;;12.00;;
27428;SDS011;14881;48.092;11.574;2023-08-21T01:36:43;12.15;;;10.95;;
27428;SDS011;14881;48.092;11.574;2023-08-21T01:39:11;13.15;;;10.88;;
27428;SDS011;14881;48.092;11.574;2023-08-21T01:41:38;14.75;;;10.70;;
27428;SDS011;14881;48.092;11.574;2023-08-21T01:44:04;12.77;;;11.15;;
27428;SDS011;14881;48.092;11.574;2023-08-21T01:46:31;16.83;;;11.48;;
27428;SDS011;14881;48.092;11.574;2023-08-21T01:48:57;13.15;;;11.40;;
27428;SDS011;14881;48.092;11.574;2023-08-21T01:51:24;12.65;;;11.38;;
27428;SDS011;14881;48.092;11.574;2023-08-21T01:53:50;12.60;;;11.30;;
27428;SDS011;14881;48.092;11.574;2023-08-21T01:56:16;12.48;;;11.02;;
27428;SDS011;14881;48.092;11.574;2023-08-21T01:58:43;14.30;;;11.65;;
27428;SDS011;14881;48.092;11.574;2023-08-21T02:01:10;12.95;;;11.60;;
27428;SDS011;14881;48.092;11.574;2023-08-21T02:03:36;13.57;;;12.10;;
27428;SDS011;14881;48.092;11.574;2023-08-21T02:06:03;14.15;;;10.75;;
27428;SDS011;14881;48.092;11.574;2023-08-21T02:08:30;12.38;;;11.00;;
27428;SDS011;14881;48.092;11.574;2023-08-21T02:10:57;16.30;;;11.48;;
27428;SDS011;14881;48.092;11.574;2023-08-21T02:13:24;17.08;;;11.60;;
27428;SDS011;14881;48.092;11.574;2023-08-21T02:15:51;15.57;;;11.35;;
27428;SDS011;14881;48.092;11.574;2023-08-21T02:18:18;14.75;;;10.52;;
27428;SDS011;14881;48.092;11.574;2023-08-21T02:20:44;12.70;;;11.27;;
27428;SDS011;14881;48.092;11.574;2023-08-21T02:23:12;12.77;;;11.45;;
27428;SDS011;14881;48.092;11.574;2023-08-21T02:25:39;14.07;;;11.63;;
27428;SDS011;14881;48.092;11.574;2023-08-21T02:28:06;12.23;;;11.02;;
27428;SDS011;14881;48.092;11.574;2023-08-21T02:30:32;12.18;;;10.95;;
27428;SDS011;14881;48.092;11.574;2023-08-21T02:32:59;14.00;;;11.20;;
27428;SDS011;14881;48.092;11.574;2023-08-21T02:35:25;14.73;;;11.30;;
27428;SDS011;14881;48.092;11.574;2023-08-21T02:37:52;13.35;;;11.93;;
27428;SDS011;14881;48.092;11.574;2023-08-21T02:40:18;13.70;;;11.60;;
27428;SDS011;14881;48.092;11.574;2023-08-21T02:42:45;12.88;;;11.57;;
27428;SDS011;14881;48.092;11.574;2023-08-21T02:45:11;13.48;;;11.98;;
27428;SDS011;14881;48.092;11.574;2023-08-21T02:47:38;16.55;;;12.25;;
27428;SDS011;14881;48.092;11.574;2023-08-21T02:50:07;14.45;;;11.95;;
27428;SDS011;14881;48.092;11.574;2023-08-21T02:52:35;13.52;;;12.13;;
27428;SDS011;14881;48.092;11.574;2023-08-21T02:55:03;14.48;;;12.48;;
27428;SDS011;14881;48.092;11.574;2023-08-21T02:57:30;13.38;;;12.00;;
27428;SDS011;14881;48.092;11.574;2023-08-21T02:59:56;14.60;;;12.85;;
27428;SDS011;14881;48.092;11.574;2023-08-21T03:02:24;12.82;;;11.63;;
27428;SDS011;14881;48.092;11.574;2023-08-21T03:04:51;12.57;;;11.30;;
27428;SDS011;14881;48.092;11.574;2023-08-21T03:07:18;16.00;;;12.00;;
27428;SDS011;14881;48.092;11.574;2023-08-21T03:09:45;12.48;;;11.10;;
27428;SDS011;14881;48.092;11.574;2023-08-21T03:12:12;14.15;;;11.00;;
27428;SDS011;14881;48.092;11.574;2023-08-21T03:14:39;14.63;;;11.75;;
27428;SDS011;14881;48.092;11.574;2023-08-21T03:17:05;12.90;;;11.60;;
27428;SDS011;14881;48.092;11.574;2023-08-21T03:19:31;15.65;;;11.90;;
27428;SDS011;14881;48.092;11.574;2023-08-21T03:21:58;13.40;;;11.15;;
27428;SDS011;14881;48.092;11.574;2023-08-21T03:24:25;12.40;;;11.20;;
27428;SDS011;14881;48.092;11.574;2023-08-21T03:26:51;12.45;;;11.25;;
27428;SDS011;14881;48.092;11.574;2023-08-21T03:29:18;13.15;;;11.80;;
27428;SDS011;14881;48.092;11.574;2023-08-21T03:31:46;13.32;;;12.05;;
27428;SDS011;14881;48.092;11.574;2023-08-21T03:34:12;13.05;;;11.68;;
27428;SDS011;14881;48.092;11.574;2023-08-21T03:36:39;12.60;;;11.30;;
27428;SDS011;14881;48.092;11.574;2023-08-21T03:39:05;13.15;;;11.23;;
27428;SDS011;14881;48.092;11.574;2023-08-21T03:41:32;11.90;;;10.73;;
27428;SDS011;14881;48.092;11.574;2023-08-21T03:43:58;14.35;;;11.32;;
27428;SDS011;14881;48.092;11.574;2023-08-21T03:46:25;12.25;;;10.75;;
27428;SDS011;14881;48.092;11.574;2023-08-21T03:48:51;13.13;;;11.93;;
27428;SDS011;14881;48.092;11.574;2023-08-21T03:51:18;11.85;;;10.65;;
27428;SDS011;14881;48.092;11.574;2023-08-21T03:53:44;12.60;;;11.27;;
27428;SDS011;14881;48.092;11.574;2023-08-21T03:56:10;12.48;;;11.27;;
27428;SDS011;14881;48.092;11.574;2023-08-21T03:58:37;12.27;;;11.05;;
27428;SDS011;14881;48.092;11.574;2023-08-21T04:01:04;13.00;;;11.55;;
27428;SDS011;14881;48.092;11.574;2023-08-21T04:03:30;12.98;;;11.23;;
27428;SDS011;14881;48.092;11.574;2023-08-21T04:05:56;15.73;;;11.50;;
27428;SDS011;14881;48.092;11.574;2023-08-21T04:08:24;16.63;;;11.60;;
27428;SDS011;14881;48.092;11.574;2023-08-21T04:10:51;12.25;;;10.98;;
27428;SDS011;14881;48.092;11.574;2023-08-21T04:13:18;11.98;;;10.88;;
27428;SDS011;14881;48.092;11.574;2023-08-21T04:15:45;12.20;;;10.77;;
27428;SDS011;14881;48.092;11.574;2023-08-21T04:18:12;12.27;;;11.07;;
27428;SDS011;14881;48.092;11.574;2023-08-21T04:20:43;13.00;;;10.85;;
27428;SDS011;14881;48.092;11.574;2023-08-21T04:23:10;12.70;;;10.95;;
27428;SDS011;14881;48.092;11.574;2023-08-21T04:25:36;15.07;;;11.80;;
27428;SDS011;14881;48.092;11.574;2023-08-21T04:28:03;16.02;;;11.15;;
27428;SDS011;14881;48.092;11.574;2023-08-21T04:30:29;17.85;;;11.18;;
27428;SDS011;14881;48.092;11.574;2023-08-21T04:32:56;13.40;;;10.88;;
27428;SDS011;14881;48.092;11.574;2023-08-21T04:35:22;12.27;;;11.07;;
27428;SDS011;14881;48.092;11.574;2023-08-21T04:37:49;13.38;;;11.30;;
27428;SDS011;14881;48.092;11.574;2023-08-21T04:40:15;12.57;;;11.20;;
27428;SDS011;14881;48.092;11.574;2023-08-21T04:42:43;13.00;;;10.82;;
27428;SDS011;14881;48.092;11.574;2023-08-21T04:45:09;11.55;;;10.35;;
27428;SDS011;14881;48.092;11.574;2023-08-21T04:47:36;12.63;;;10.63;;
27428;SDS011;14881;48.092;11.574;2023-08-21T04:50:03;11.20;;;10.10;;
27428;SDS011;14881;48.092;11.574;2023-08-21T04:52:30;14.65;;;11.00;;
27428;SDS011;14881;48.092;11.574;2023-08-21T04:54:57;13.00;;;11.18;;
27428;SDS011;14881;48.092;11.574;2023-08-21T04:57:23;15.65;;;11.25;;
27428;SDS011;14881;48.092;11.574;2023-08-21T04:59:49;12.63;;;10.95;;
27428;SDS011;14881;48.092;11.574;2023-08-21T05:02:16;11.60;;;10.50;;
27428;SDS011;14881;48.092;11.574;2023-08-21T05:04:42;17.02;;;11.13;;
27428;SDS011;14881;48.092;11.574;2023-08-21T05:07:09;10.73;;;9.65;;
27428;SDS011;14881;48.092;11.574;2023-08-21T05:09:35;12.48;;;10.60;;
27428;SDS011;14881;48.092;11.574;2023-08-21T05:12:02;12.95;;;10.80;;
27428;SDS011;14881;48.092;11.574;2023-08-21T05:14:29;12.95;;;10.80;;
27428;SDS011;14881;48.092;11.574;2023-08-21T05:16:55;11.88;;;10.68;;
27428;SDS011;14881;48.092;11.574;2023-08-21T05:19:21;11.80;;;10.55;;
27428;SDS011;14881;48.092;11.574;2023-08-21T05:21:48;13.90;;;9.60;;
27428;SDS011;14881;48.092;11.574;2023-08-21T05:24:15;13.43;;;10.65;;
27428;SDS011;14881;48.092;11.574;2023-08-21T05:26:41;13.52;;;10.23;;
27428;SDS011;14881;48.092;11.574;2023-08-21T05:29:08;13.77;;;11.40;;
27428;SDS011;14881;48.092;11.574;2023-08-21T05:31:34;13.63;;;10.50;;
27428;SDS011;14881;48.092;11.574;2023-08-21T05:34:00;12.40;;;10.43;;
27428;SDS011;14881;48.092;11.574;2023-08-21T05:36:27;13.55;;;10.52;;
27428;SDS011;14881;48.092;11.574;2023-08-21T05:38:53;12.52;;;10.50;;
27428;SDS011;14881;48.092;11.574;2023-08-21T05:41:20;16.15;;;11.40;;
27428;SDS011;14881;48.092;11.574;2023-08-21T05:43:47;15.75;;;11.18;;
27428;SDS011;14881;48.092;11.574;2023-08-21T05:46:14;11.13;;;10.02;;
27428;SDS011;14881;48.092;11.574;2023-08-21T05:48:40;14.68;;;10.15;;
27428;SDS011;14881;48.092;11.574;2023-08-21T05:51:07;14.30;;;10.13;;
27428;SDS011;14881;48.092;11.574;2023-08-21T05:53:33;11.60;;;9.55;;
27428;SDS011;14881;48.092;11.574;2023-08-21T05:56:00;11.95;;;9.27;;
27428;SDS011;14881;48.092;11.574;2023-08-21T05:58:27;16.80;;;8.65;;
27428;SDS011;14881;48.092;11.574;2023-08-21T06:00:55;11.35;;;8.73;;
27428;SDS011;14881;48.092;11.574;2023-08-21T06:03:22;11.43;;;8.85;;
27428;SDS011;14881;48.092;11.574;2023-08-21T06:05:48;17.58;;;9.63;;
27428;SDS011;14881;48.092;11.574;2023-08-21T06:08:15;11.32;;;8.35;;
27428;SDS011;14881;48.092;11.574;2023-08-21T06:10:41;10.20;;;8.65;;
27428;SDS011;14881;48.092;11.574;2023-08-21T06:13:08;12.95;;;8.55;;
27428;SDS011;14881;48.092;11.574;2023-08-21T06:15:35;9.73;;;8.13;;
27428;SDS011;14881;48.092;11.574;2023-08-21T06:18:01;9.35;;;8.20;;
27428;SDS011;14881;48.092;11.574;2023-08-21T06:20:28;11.07;;;7.90;;
27428;SDS011;14881;48.092;11.574;2023-08-21T06:22:54;11.32;;;8.13;;
27428;SDS011;14881;48.092;11.574;2023-08-21T06:25:20;8.45;;;7.45;;
27428;SDS011;14881;48.092;11.574;2023-08-21T06:27:47;12.50;;;8.15;;
27428;SDS011;14881;48.092;11.574;2023-08-21T06:30:25;11.88;;;8.00;;
27428;SDS011;14881;48.092;11.574;2023-08-21T06:32:52;12.65;;;7.72;;
27428;SDS011;14881;48.092;11.574;2023-08-21T06:35:18;10.52;;;7.63;;
27428;SDS011;14881;48.092;11.574;2023-08-21T06:37:45;10.68;;;7.70;;
27428;SDS011;14881;48.092;11.574;2023-08-21T06:40:11;11.20;;;7.22;;
27428;SDS011;14881;48.092;11.574;2023-08-21T06:42:37;11.13;;;8.00;;
27428;SDS011;14881;48.092;11.574;2023-08-21T06:45:05;9.50;;;7.38;;
27428;SDS011;14881;48.092;11.574;2023-08-21T06:47:31;8.50;;;7.18;;
27428;SDS011;14881;48.092;11.574;2023-08-21T06:49:59;10.30;;;7.63;;
27428;SDS011;14881;48.092;11.574;2023-08-21T06:52:26;9.18;;;7.75;;
27428;SDS011;14881;48.092;11.574;2023-08-21T06:54:52;9.73;;;7.50;;
27428;SDS011;14881;48.092;11.574;2023-08-21T06:57:18;9.38;;;7.18;;
27428;SDS011;14881;48.092;11.574;2023-08-21T06:59:45;9.95;;;7.43;;
27428;SDS011;14881;48.092;11.574;2023-08-21T07:02:11;10.75;;;7.40;;
27428;SDS011;14881;48.092;11.574;2023-08-21T07:04:38;11.57;;;7.43;;
27428;SDS011;14881;48.092;11.574;2023-08-21T07:07:05;10.32;;;7.28;;
27428;SDS011;14881;48.092;11.574;2023-08-21T07:09:31;12.98;;;7.93;;
27428;SDS011;14881;48.092;11.574;2023-08-21T07:11:58;9.93;;;7.82;;
27428;SDS011;14881;48.092;11.574;2023-08-21T07:14:24;10.70;;;8.05;;
27428;SDS011;14881;48.092;11.574;2023-08-21T07:16:50;9.45;;;7.45;;
27428;SDS011;14881;48.092;11.574;2023-08-21T07:19:17;8.13;;;7.10;;
27428;SDS011;14881;48.092;11.574;2023-08-21T07:21:43;14.48;;;7.45;;
27428;SDS011;14881;48.092;11.574;2023-08-21T07:24:10;8.23;;;7.30;;
27428;SDS011;14881;48.092;11.574;2023-08-21T07:26:37;10.43;;;7.28;;
27428;SDS011;14881;48.092;11.574;2023-08-21T07:29:03;11.10;;;7.65;;
27428;SDS011;14881;48.092;11.574;2023-08-21T07:31:30;9.90;;;7.72;;
27428;SDS011;14881;48.092;11.574;2023-08-21T07:33:56;9.15;;;7.10;;
27428;SDS011;14881;48.092;11.574;2023-08-21T07:36:23;9.60;;;7.45;;
27428;SDS011;14881;48.092;11.574;2023-08-21T07:38:49;12.23;;;7.65;;
27428;SDS011;14881;48.092;11.574;2023-08-21T07:41:16;9.27;;;7.72;;
27428;SDS011;14881;48.092;11.574;2023-08-21T07:43:43;11.73;;;7.15;;
27428;SDS011;14881;48.092;11.574;2023-08-21T07:46:11;7.63;;;6.82;;
27428;SDS011;14881;48.092;11.574;2023-08-21T07:48:41;8.55;;;7.38;;
27428;SDS011;14881;48.092;11.574;2023-08-21T07:51:08;7.90;;;6.93;;
27428;SDS011;14881;48.092;11.574;2023-08-21T07:53:34;9.43;;;7.60;;
27428;SDS011;14881;48.092;11.574;2023-08-21T07:56:01;8.07;;;7.28;;
27428;SDS011;14881;48.092;11.574;2023-08-21T07:58:30;7.78;;;7.05;;
27428;SDS011;14881;48.092;11.574;2023-08-21T08:00:57;9.07;;;7.80;;
27428;SDS011;14881;48.092;11.574;2023-08-21T08:03:23;9.45;;;7.68;;
27428;SDS011;14881;48.092;11.574;2023-08-21T08:05:50;9.48;;;7.50;;
27428;SDS011;14881;48.092;11.574;2023-08-21T08:08:21;8.38;;;7.50;;
27428;SDS011;14881;48.092;11.574;2023-08-21T08:10:48;8.68;;;6.93;;
27428;SDS011;14881;48.092;11.574;2023-08-21T08:13:14;8.13;;;7.18;;
27428;SDS011;14881;48.092;11.574;2023-08-21T08:15:41;9.63;;;7.55;;
27428;SDS011;14881;48.092;11.574;2023-08-21T08:18:10;9.45;;;7.22;;
27428;SDS011;14881;48.092;11.574;2023-08-21T08:20:37;10.38;;;7.63;;
27428;SDS011;14881;48.092;11.574;2023-08-21T08:23:04;9.90;;;7.63;;
27428;SDS011;14881;48.092;11.574;2023-08-21T08:25:30;10.05;;;7.40;;
27428;SDS011;14881;48.092;11.574;2023-08-21T08:27:57;9.32;;;6.95;;
27428;SDS011;14881;48.092;11.574;2023-08-21T08:30:23;9.48;;;7.90;;
27428;SDS011;14881;48.092;11.574;2023-08-21T08:32:50;9.43;;;6.97;;
27428;SDS011;14881;48.092;11.574;2023-08-21T08:35:17;8.85;;;7.07;;
27428;SDS011;14881;48.092;11.574;2023-08-21T08:37:43;10.75;;;7.85;;
27428;SDS011;14881;48.092;11.574;2023-08-21T08:40:10;10.30;;;7.18;;
27428;SDS011;14881;48.092;11.574;2023-08-21T08:42:37;10.85;;;7.38;;
27428;SDS011;14881;48.092;11.574;2023-08-21T08:45:05;8.25;;;7.15;;
27428;SDS011;14881;48.092;11.574;2023-08-21T08:47:32;10.38;;;7.82;;
27428;SDS011;14881;48.092;11.574;2023-08-21T08:50:00;9.45;;;7.80;;
27428;SDS011;14881;48.092;11.574;2023-08-21T08:52:29;10.40;;;7.68;;
27428;SDS011;14881;48.092;11.574;2023-08-21T08:54:57;8.10;;;7.28;;
27428;SDS011;14881;48.092;11.574;2023-08-21T08:57:23;8.98;;;6.80;;
27428;SDS011;14881;48.092;11.574;2023-08-21T08:59:50;9.68;;;7.32;;
27428;SDS011;14881;48.092;11.574;2023-08-21T09:02:16;8.35;;;7.25;;
27428;SDS011;14881;48.092;11.574;2023-08-21T09:04:43;7.70;;;6.90;;
27428;SDS011;14881;48.092;11.574;2023-08-21T09:07:11;8.00;;;6.72;;
27428;SDS011;14881;48.092;11.574;2023-08-21T09:09:38;8.15;;;7.35;;
27428;SDS011;14881;48.092;11.574;2023-08-21T09:12:08;7.78;;;6.55;;
27428;SDS011;14881;48.092;11.574;2023-08-21T09:14:36;10.73;;;6.72;;
27428;SDS011;14881;48.092;11.574;2023-08-21T09:17:02;7.40;;;6.70;;
27428;SDS011;14881;48.092;11.574;2023-08-21T09:19:29;7.85;;;6.53;;
27428;SDS011;14881;48.092;11.574;2023-08-21T09:21:55;8.13;;;6.85;;
27428;SDS011;14881;48.092;11.574;2023-08-21T09:24:22;8.90;;;7.18;;
27428;SDS011;14881;48.092;11.574;2023-08-21T09:26:49;7.82;;;6.95;;
27428;SDS011;14881;48.092;11.574;2023-08-21T09:29:16;7.70;;;6.53;;
27428;SDS011;14881;48.092;11.574;2023-08-21T09:31:43;6.40;;;5.68;;
27428;SDS011;14881;48.092;11.574;2023-08-21T09:34:11;7.43;;;5.82;;
27428;SDS011;14881;48.092;11.574;2023-08-21T09:36:38;8.35;;;6.13;;
27428;SDS011;14881;48.092;11.574;2023-08-21T09:39:05;6.63;;;5.82;;
27428;SDS011;14881;48.092;11.574;2023-08-21T09:41:32;7.15;;;6.22;;
27428;SDS011;14881;48.092;11.574;2023-08-21T09:43:59;7.80;;;6.53;;
27428;SDS011;14881;48.092;11.574;2023-08-21T09:46:26;6.38;;;5.50;;
27428;SDS011;14881;48.092;11.574;2023-08-21T09:48:53;6.85;;;4.88;;
27428;SDS011;14881;48.092;11.574;2023-08-21T09:51:20;6.40;;;5.80;;
27428;SDS011;14881;48.092;11.574;2023-08-21T09:53:47;6.32;;;5.72;;
27428;SDS011;14881;48.092;11.574;2023-08-21T09:56:14;5.85;;;5.25;;
27428;SDS011;14881;48.092;11.574;2023-08-21T09:58:41;6.63;;;5.30;;
27428;SDS011;14881;48.092;11.574;2023-08-21T10:01:09;5.57;;;5.15;;
27428;SDS011;14881;48.092;11.574;2023-08-21T10:03:39;7.53;;;5.68;;
27428;SDS011;14881;48.092;11.574;2023-08-21T10:06:08;6.40;;;5.78;;
27428;SDS011;14881;48.092;11.574;2023-08-21T10:08:36;6.40;;;5.68;;
27428;SDS011;14881;48.092;11.574;2023-08-21T10:11:04;5.20;;;4.80;;
27428;SDS011;14881;48.092;11.574;2023-08-21T10:13:32;7.03;;;5.38;;
27428;SDS011;14881;48.092;11.574;2023-08-21T10:16:00;6.75;;;5.20;;
27428;SDS011;14881;48.092;11.574;2023-08-21T10:18:29;6.57;;;5.05;;
27428;SDS011;14881;48.092;11.574;2023-08-21T10:20:56;8.35;;;5.32;;
27428;SDS011;14881;48.092;11.574;2023-08-21T10:23:37;6.18;;;5.57;;
27428;SDS011;14881;48.092;11.574;2023-08-21T10:26:10;7.53;;;6.00;;
27428;SDS011;14881;48.092;11.574;2023-08-21T10:31:31;7.32;;;5.82;;
27428;SDS011;14881;48.092;11.574;2023-08-21T10:34:00;8.68;;;5.80;;
27428;SDS011;14881;48.092;11.574;2023-08-21T10:39:35;10.68;;;5.72;;
27428;SDS011;14881;48.092;11.574;2023-08-21T10:42:06;6.38;;;5.63;;
27428;SDS011;14881;48.092;11.574;2023-08-21T10:44:47;8.98;;;6.20;;
27428;SDS011;14881;48.092;11.574;2023-08-21T10:47:31;8.88;;;5.82;;
27428;SDS011;14881;48.092;11.574;2023-08-21T10:49:59;8.57;;;6.20;;
27428;SDS011;14881;48.092;11.574;2023-08-21T10:52:26;7.00;;;6.05;;
27428;SDS011;14881;48.092;11.574;2023-08-21T10:54:54;9.40;;;6.10;;
27428;SDS011;14881;48.092;11.574;2023-08-21T10:57:22;8.95;;;6.05;;
27428;SDS011;14881;48.092;11.574;2023-08-21T10:59:53;6.30;;;5.30;;
27428;SDS011;14881;48.092;11.574;2023-08-21T11:02:21;6.57;;;5.65;;
27428;SDS011;14881;48.092;11.574;2023-08-21T11:04:48;7.70;;;5.20;;
27428;SDS011;14881;48.092;11.574;2023-08-21T11:07:15;8.18;;;5.85;;
27428;SDS011;14881;48.092;11.574;2023-08-21T11:09:42;8.30;;;6.20;;
27428;SDS011;14881;48.092;11.574;2023-08-21T11:12:09;9.15;;;6.50;;
27428;SDS011;14881;48.092;11.574;2023-08-21T11:14:37;8.30;;;6.43;;
27428;SDS011;14881;48.092;11.574;2023-08-21T11:17:04;6.47;;;5.88;;
27428;SDS011;14881;48.092;11.574;2023-08-21T11:19:31;6.55;;;5.90;;
27428;SDS011;14881;48.092;11.574;2023-08-21T11:21:58;6.53;;;5.78;;
27428;SDS011;14881;48.092;11.574;2023-08-21T11:24:29;6.22;;;5.50;;
27428;SDS011;14881;48.092;11.574;2023-08-21T11:26:56;7.70;;;5.88;;
27428;SDS011;14881;48.092;11.574;2023-08-21T11:29:23;8.57;;;5.85;;
27428;SDS011;14881;48.092;11.574;2023-08-21T11:31:50;6.80;;;5.88;;
27428;SDS011;14881;48.092;11.574;2023-08-21T11:34:18;6.78;;;5.43;;
27428;SDS011;14881;48.092;11.574;2023-08-21T11:36:49;8.23;;;5.57;;
27428;SDS011;14881;48.092;11.574;2023-08-21T11:39:17;6.82;;;5.45;;
27428;SDS011;14881;48.092;11.574;2023-08-21T11:41:52;6.38;;;5.15;;
27428;SDS011;14881;48.092;11.574;2023-08-21T11:44:19;9.15;;;5.55;;
27428;SDS011;14881;48.092;11.574;2023-08-21T11:46:45;7.65;;;5.88;;
27428;SDS011;14881;48.092;11.574;2023-08-21T11:49:12;5.78;;;5.18;;
27428;SDS011;14881;48.092;11.574;2023-08-21T11:51:38;6.28;;;5.68;;
27428;SDS011;14881;48.092;11.574;2023-08-21T11:54:05;7.65;;;5.82;;
27428;SDS011;14881;48.092;11.574;2023-08-21T11:56:32;11.27;;;6.07;;
27428;SDS011;14881;48.092;11.574;2023-08-21T11:58:59;7.30;;;6.00;;
27428;SDS011;14881;48.092;11.574;2023-08-21T12:01:26;9.10;;;5.65;;
27428;SDS011;14881;48.092;11.574;2023-08-21T12:03:53;7.05;;;5.97;;
27428;SDS011;14881;48.092;11.574;2023-08-21T12:06:20;7.40;;;5.90;;
27428;SDS011;14881;48.092;11.574;2023-08-21T12:08:47;6.30;;;5.20;;
27428;SDS011;14881;48.092;11.574;2023-08-21T12:11:13;6.18;;;5.57;;
27428;SDS011;14881;48.092;11.574;2023-08-21T12:13:40;5.68;;;5.18;;
27428;SDS011;14881;48.092;11.574;2023-08-21T12:16:07;7.22;;;5.65;;
27428;SDS011;14881;48.092;11.574;2023-08-21T12:18:34;6.07;;;5.47;;
27428;SDS011;14881;48.092;11.574;2023-08-21T12:21:00;11.48;;;6.35;;
27428;SDS011;14881;48.092;11.574;2023-08-21T12:23:26;6.07;;;5.47;;
27428;SDS011;14881;48.092;11.574;2023-08-21T12:25:53;6.97;;;6.30;;
27428;SDS011;14881;48.092;11.574;2023-08-21T12:28:20;7.25;;;5.90;;
27428;SDS011;14881;48.092;11.574;2023-08-21T12:30:47;7.00;;;4.88;;
27428;SDS011;14881;48.092;11.574;2023-08-21T12:33:13;8.05;;;5.55;;
27428;SDS011;14881;48.092;11.574;2023-08-21T12:35:49;6.55;;;5.85;;
27428;SDS011;14881;48.092;11.574;2023-08-21T12:38:16;8.65;;;5.30;;
27428;SDS011;14881;48.092;11.574;2023-08-21T12:40:42;7.60;;;5.88;;
27428;SDS011;14881;48.092;11.574;2023-08-21T12:43:09;9.68;;;6.03;;
27428;SDS011;14881;48.092;11.574;2023-08-21T12:45:35;8.02;;;5.80;;
27428;SDS011;14881;48.092;11.574;2023-08-21T12:48:04;6.90;;;5.30;;
27428;SDS011;14881;48.092;11.574;2023-08-21T12:50:30;7.15;;;5.85;;
27428;SDS011;14881;48.092;11.574;2023-08-21T12:52:57;7.10;;;5.45;;
27428;SDS011;14881;48.092;11.574;2023-08-21T12:55:23;9.40;;;5.63;;
27428;SDS011;14881;48.092;11.574;2023-08-21T12:57:50;10.55;;;5.57;;
27428;SDS011;14881;48.092;11.574;2023-08-21T13:00:16;9.43;;;5.68;;
27428;SDS011;14881;48.092;11.574;2023-08-21T13:02:43;6.60;;;5.93;;
27428;SDS011;14881;48.092;11.574;2023-08-21T13:05:10;5.60;;;5.07;;
27428;SDS011;14881;48.092;11.574;2023-08-21T13:07:37;6.88;;;5.60;;
27428;SDS011;14881;48.092;11.574;2023-08-21T13:10:03;6.53;;;5.60;;
27428;SDS011;14881;48.092;11.574;2023-08-21T13:12:30;8.65;;;5.97;;
27428;SDS011;14881;48.092;11.574;2023-08-21T13:14:57;6.45;;;5.68;;
27428;SDS011;14881;48.092;11.574;2023-08-21T13:17:24;7.80;;;5.35;;
27428;SDS011;14881;48.092;11.574;2023-08-21T13:19:50;9.45;;;5.45;;
27428;SDS011;14881;48.092;11.574;2023-08-21T13:22:17;8.93;;;5.70;;
27428;SDS011;14881;48.092;11.574;2023-08-21T13:24:44;6.47;;;5.60;;
27428;SDS011;14881;48.092;11.574;2023-08-21T13:27:10;6.63;;;5.38;;
27428;SDS011;14881;48.092;11.574;2023-08-21T13:29:37;5.85;;;5.32;;
27428;SDS011;14881;48.092;11.574;2023-08-21T13:32:03;7.50;;;5.47;;
27428;SDS011;14881;48.092;11.574;2023-08-21T13:34:30;9.73;;;5.35;;
27428;SDS011;14881;48.092;11.574;2023-08-21T13:36:56;7.13;;;5.25;;
27428;SDS011;14881;48.092;11.574;2023-08-21T13:39:23;6.63;;;5.32;;
27428;SDS011;14881;48.092;11.574;2023-08-21T13:41:51;7.22;;;5.47;;
27428;SDS011;14881;48.092;11.574;2023-08-21T13:44:18;7.07;;;5.22;;
27428;SDS011;14881;48.092;11.574;2023-08-21T13:46:45;8.30;;;5.63;;
27428;SDS011;14881;48.092;11.574;2023-08-21T13:49:12;6.03;;;5.43;;
27428;SDS011;14881;48.092;11.574;2023-08-21T13:51:38;6.22;;;5.40;;
27428;SDS011;14881;48.092;11.574;2023-08-21T13:54:05;6.78;;;5.68;;
27428;SDS011;14881;48.092;11.574;2023-08-21T13:56:32;7.00;;;5.40;;
27428;SDS011;14881;48.092;11.574;2023-08-21T13:58:58;6.28;;;5.50;;
27428;SDS011;14881;48.092;11.574;2023-08-21T14:01:24;9.63;;;5.78;;
27428;SDS011;14881;48.092;11.574;2023-08-21T14:03:51;7.88;;;5.68;;
27428;SDS011;14881;48.092;11.574;2023-08-21T14:06:17;18.80;;;7.22;;
27428;SDS011;14881;48.092;11.574;2023-08-21T14:08:44;18.50;;;6.20;;
27428;SDS011;14881;48.092;11.574;2023-08-21T14:11:10;12.25;;;5.70;;
27428;SDS011;14881;48.092;11.574;2023-08-21T14:13:37;7.03;;;5.68;;
27428;SDS011;14881;48.092;11.574;2023-08-21T14:16:04;10.95;;;5.47;;
27428;SDS011;14881;48.092;11.574;2023-08-21T14:18:30;6.00;;;5.38;;
27428;SDS011;14881;48.092;11.574;2023-08-21T14:20:57;6.72;;;5.63;;
27428;SDS011;14881;48.092;11.574;2023-08-21T14:23:23;7.88;;;6.13;;
27428;SDS011;14881;48.092;11.574;2023-08-21T14:25:49;7.60;;;5.65;;
27428;SDS011;14881;48.092;11.574;2023-08-21T14:28:17;5.80;;;5.30;;